sensor_id;sensor_type;location;lat;lon;timestamp;pressure;altitude;pressure_sealevel;temperature;humidity
15604;BME280;7902;49.042;9.092;2023-04-29T00:01:58;98705.38;;;18.74;63.44
15604;BME280;7902;49.042;9.092;2023-04-29T00:04:25;98706.75;;;18.70;63.49
15604;BME280;7902;49.042;9.092;2023-04-29T00:06:50;98710.06;;;18.72;64.51
15604;BME280;7902;49.042;9.092;2023-04-29T00:09:16;98699.44;;;18.72;63.76
15604;BME280;7902;49.042;9.092;2023-04-29T00:11:42;98712.06;;;18.70;63.90
15604;BME280;7902;49.042;9.092;2023-04-29T00:14:08;98715.06;;;18.67;63.80
15604;BME280;7902;49.042;9.092;2023-04-29T00:16:34;98701.78;;;18.67;63.95
15604;BME280;7902;49.042;9.092;2023-04-29T00:19:00;98709.06;;;18.73;63.78
15604;BME280;7902;49.042;9.092;2023-04-29T00:21:26;98713.75;;;18.63;64.48
15604;BME280;7902;49.042;9.092;2023-04-29T00:23:53;98711.75;;;18.65;63.75
15604;BME280;7902;49.042;9.092;2023-04-29T00:26:19;98710.06;;;18.72;64.16
15604;BME280;7902;49.042;9.092;2023-04-29T00:28:45;98710.06;;;18.72;64.07
15604;BME280;7902;49.042;9.092;2023-04-29T00:31:11;98712.25;;;18.69;64.09
15604;BME280;7902;49.042;9.092;2023-04-29T00:33:37;98708.91;;;18.67;64.07
15604;BME280;7902;49.042;9.092;2023-04-29T00:36:06;98704.78;;;18.64;64.19
15604;BME280;7902;49.042;9.092;2023-04-29T00:38:32;98708.25;;;18.65;64.68
15604;BME280;7902;49.042;9.092;2023-04-29T00:40:58;98711.75;;;18.65;64.64
15604;BME280;7902;49.042;9.092;2023-04-29T00:43:24;98708.59;;;18.62;64.35
15604;BME280;7902;49.042;9.092;2023-04-29T00:45:50;98714.25;;;18.67;64.66
15604;BME280;7902;49.042;9.092;2023-04-29T00:48:16;98715.06;;;18.67;64.38
15604;BME280;7902;49.042;9.092;2023-04-29T00:50:42;98712.94;;;18.63;64.87
15604;BME280;7902;49.042;9.092;2023-04-29T00:53:09;98714.75;;;18.62;64.24
15604;BME280;7902;49.042;9.092;2023-04-29T00:55:38;98722.38;;;18.65;64.50
15604;BME280;7902;49.042;9.092;2023-04-29T00:58:03;98714.09;;;18.60;64.74
15604;BME280;7902;49.042;9.092;2023-04-29T01:00:29;98718.41;;;18.61;64.32
15604;BME280;7902;49.042;9.092;2023-04-29T01:02:56;98713.44;;;18.58;64.52
15604;BME280;7902;49.042;9.092;2023-04-29T01:05:23;98710.78;;;18.58;65.08
15604;BME280;7902;49.042;9.092;2023-04-29T01:16:09;98715.09;;;18.59;64.25
15604;BME280;7902;49.042;9.092;2023-04-29T01:18:40;98723.41;;;18.56;64.14
15604;BME280;7902;49.042;9.092;2023-04-29T01:21:08;98721.91;;;18.62;63.50
15604;BME280;7902;49.042;9.092;2023-04-29T01:23:34;98723.91;;;18.60;63.98
15604;BME280;7902;49.042;9.092;2023-04-29T01:26:00;98729.41;;;18.58;63.69
15604;BME280;7902;49.042;9.092;2023-04-29T01:30:59;98723.09;;;18.59;63.75
15604;BME280;7902;49.042;9.092;2023-04-29T01:44:01;98728.22;;;18.53;63.77
15604;BME280;7902;49.042;9.092;2023-04-29T01:46:29;98724.72;;;18.52;64.10
15604;BME280;7902;49.042;9.092;2023-04-29T01:48:55;98724.72;;;18.52;63.28
15604;BME280;7902;49.042;9.092;2023-04-29T01:51:21;98729.22;;;18.52;63.76
15604;BME280;7902;49.042;9.092;2023-04-29T01:53:47;98733.38;;;18.46;63.67
15604;BME280;7902;49.042;9.092;2023-04-29T01:56:13;98725.25;;;18.48;63.21
15604;BME280;7902;49.042;9.092;2023-04-29T01:58:39;98725.41;;;18.46;63.23
15604;BME280;7902;49.042;9.092;2023-04-29T02:01:05;98726.59;;;18.35;63.26
15604;BME280;7902;49.042;9.092;2023-04-29T02:03:31;98735.72;;;18.41;62.94
15604;BME280;7902;49.042;9.092;2023-04-29T02:05:57;98728.88;;;18.47;63.08
15604;BME280;7902;49.042;9.092;2023-04-29T02:08:23;98730.56;;;18.48;63.14
15604;BME280;7902;49.042;9.092;2023-04-29T02:10:53;98734.19;;;18.47;63.04
15604;BME280;7902;49.042;9.092;2023-04-29T02:13:19;98726.25;;;18.38;63.17
15604;BME280;7902;49.042;9.092;2023-04-29T02:15:45;98731.09;;;18.27;63.32
15604;BME280;7902;49.042;9.092;2023-04-29T02:18:11;98733.75;;;18.27;62.98
15604;BME280;7902;49.042;9.092;2023-04-29T02:20:38;98738.91;;;18.20;63.28
15604;BME280;7902;49.042;9.092;2023-04-29T02:23:04;98735.78;;;18.17;63.33
15604;BME280;7902;49.042;9.092;2023-04-29T02:25:29;98752.38;;;18.11;63.57
15604;BME280;7902;49.042;9.092;2023-04-29T02:27:55;98737.25;;;18.11;63.72
15604;BME280;7902;49.042;9.092;2023-04-29T02:30:21;98738.09;;;18.12;63.74
15604;BME280;7902;49.042;9.092;2023-04-29T02:32:47;98740.75;;;18.12;63.53
15604;BME280;7902;49.042;9.092;2023-04-29T02:35:13;98741.72;;;18.19;63.02
15604;BME280;7902;49.042;9.092;2023-04-29T02:37:39;98742.75;;;18.10;64.37
15604;BME280;7902;49.042;9.092;2023-04-29T02:40:05;98743.56;;;18.10;63.76
15604;BME280;7902;49.042;9.092;2023-04-29T02:42:31;98743.09;;;18.07;63.45
15604;BME280;7902;49.042;9.092;2023-04-29T02:44:57;98732.47;;;18.07;63.81
15604;BME280;7902;49.042;9.092;2023-04-29T02:47:23;98732.47;;;18.07;64.02
15604;BME280;7902;49.042;9.092;2023-04-29T02:49:49;98735.13;;;17.98;63.72
15604;BME280;7902;49.042;9.092;2023-04-29T02:52:15;98737.28;;;17.87;64.22
15604;BME280;7902;49.042;9.092;2023-04-29T02:54:44;98733.78;;;17.86;64.26
15604;BME280;7902;49.042;9.092;2023-04-29T02:57:10;98740.44;;;17.82;64.66
15604;BME280;7902;49.042;9.092;2023-04-29T02:59:35;98730.78;;;17.81;64.35
15604;BME280;7902;49.042;9.092;2023-04-29T03:02:02;98735.78;;;17.92;64.42
15604;BME280;7902;49.042;9.092;2023-04-29T03:04:28;98734.47;;;17.88;64.66
15604;BME280;7902;49.042;9.092;2023-04-29T03:06:55;98736.78;;;17.83;64.43
15604;BME280;7902;49.042;9.092;2023-04-29T03:09:22;98735.44;;;17.87;64.76
15604;BME280;7902;49.042;9.092;2023-04-29T03:11:48;98738.09;;;17.87;64.46
15604;BME280;7902;49.042;9.092;2023-04-29T03:14:14;98737.75;;;17.90;64.57
15604;BME280;7902;49.042;9.092;2023-04-29T03:16:40;98735.94;;;17.99;63.86
15604;BME280;7902;49.042;9.092;2023-04-29T03:19:07;98747.06;;;18.03;63.08
15604;BME280;7902;49.042;9.092;2023-04-29T03:21:33;98744.59;;;17.93;63.53
15604;BME280;7902;49.042;9.092;2023-04-29T03:23:59;98745.56;;;17.76;64.21
15604;BME280;7902;49.042;9.092;2023-04-29T03:26:25;98743.41;;;17.71;64.30
15604;BME280;7902;49.042;9.092;2023-04-29T03:28:51;98742.19;;;17.58;64.32
15604;BME280;7902;49.042;9.092;2023-04-29T03:31:17;98743.41;;;17.63;63.98
15604;BME280;7902;49.042;9.092;2023-04-29T03:33:43;98737.22;;;17.54;65.34
15604;BME280;7902;49.042;9.092;2023-04-29T03:36:09;98740.38;;;17.50;64.94
15604;BME280;7902;49.042;9.092;2023-04-29T03:38:35;98745.34;;;17.53;64.63
15604;BME280;7902;49.042;9.092;2023-04-29T03:41:01;98741.03;;;17.52;65.13
15604;BME280;7902;49.042;9.092;2023-04-29T03:43:27;98745.34;;;17.53;64.76
15604;BME280;7902;49.042;9.092;2023-04-29T03:45:53;98737.22;;;17.54;64.66
15604;BME280;7902;49.042;9.092;2023-04-29T03:48:19;98741.84;;;17.52;65.02
15604;BME280;7902;49.042;9.092;2023-04-29T03:50:46;98747.72;;;17.64;64.18
15604;BME280;7902;49.042;9.092;2023-04-29T03:53:12;98750.50;;;17.46;65.34
15604;BME280;7902;49.042;9.092;2023-04-29T03:55:37;98747.66;;;17.48;65.05
15604;BME280;7902;49.042;9.092;2023-04-29T03:58:03;98745.00;;;17.40;65.12
15604;BME280;7902;49.042;9.092;2023-04-29T04:00:30;98750.09;;;17.33;65.17
15604;BME280;7902;49.042;9.092;2023-04-29T04:02:57;98750.16;;;17.41;64.95
15604;BME280;7902;49.042;9.092;2023-04-29T04:05:23;98754.63;;;17.41;65.10
15604;BME280;7902;49.042;9.092;2023-04-29T04:07:53;98764.41;;;17.32;65.76
15604;BME280;7902;49.042;9.092;2023-04-29T04:10:19;98763.22;;;17.43;65.27
15604;BME280;7902;49.042;9.092;2023-04-29T04:12:45;98762.59;;;17.49;64.77
15604;BME280;7902;49.042;9.092;2023-04-29T04:15:12;98770.28;;;17.60;64.23
15604;BME280;7902;49.042;9.092;2023-04-29T04:17:38;98769.56;;;17.58;64.54
15604;BME280;7902;49.042;9.092;2023-04-29T04:20:04;98774.88;;;17.58;64.11
15604;BME280;7902;49.042;9.092;2023-04-29T04:22:30;98782.25;;;17.64;63.94
15604;BME280;7902;49.042;9.092;2023-04-29T04:24:56;98790.19;;;17.64;64.74
15604;BME280;7902;49.042;9.092;2023-04-29T04:27:22;98788.03;;;17.68;63.73
15604;BME280;7902;49.042;9.092;2023-04-29T04:29:52;98797.19;;;17.65;64.07
15604;BME280;7902;49.042;9.092;2023-04-29T04:32:18;98800.19;;;17.70;64.04
15604;BME280;7902;49.042;9.092;2023-04-29T04:34:44;98802.31;;;17.67;64.36
15604;BME280;7902;49.042;9.092;2023-04-29T04:37:10;98801.09;;;17.53;65.24
15604;BME280;7902;49.042;9.092;2023-04-29T04:39:37;98802.81;;;17.62;64.72
15604;BME280;7902;49.042;9.092;2023-04-29T04:42:03;98802.16;;;17.60;64.49
15604;BME280;7902;49.042;9.092;2023-04-29T04:44:29;98807.13;;;17.63;64.67
15604;BME280;7902;49.042;9.092;2023-04-29T04:46:56;98809.28;;;17.60;65.41
15604;BME280;7902;49.042;9.092;2023-04-29T04:49:22;98818.19;;;17.50;65.55
15604;BME280;7902;49.042;9.092;2023-04-29T04:51:49;98820.63;;;17.44;66.35
15604;BME280;7902;49.042;9.092;2023-04-29T04:54:16;98822.03;;;17.56;66.10
15604;BME280;7902;49.042;9.092;2023-04-29T04:56:42;98817.41;;;17.66;65.57
15604;BME280;7902;49.042;9.092;2023-04-29T04:59:07;98815.09;;;17.63;65.71
15604;BME280;7902;49.042;9.092;2023-04-29T05:01:34;98816.13;;;17.78;65.37
15604;BME280;7902;49.042;9.092;2023-04-29T05:03:59;98821.44;;;17.78;64.98
15604;BME280;7902;49.042;9.092;2023-04-29T05:06:27;98814.31;;;17.79;64.63
15604;BME280;7902;49.042;9.092;2023-04-29T05:08:53;98826.06;;;17.76;64.88
15604;BME280;7902;49.042;9.092;2023-04-29T05:11:20;98822.25;;;17.79;65.28
15604;BME280;7902;49.042;9.092;2023-04-29T05:13:47;98837.34;;;17.70;65.27
15604;BME280;7902;49.042;9.092;2023-04-29T05:16:13;98847.97;;;17.70;65.42
15604;BME280;7902;49.042;9.092;2023-04-29T05:18:39;98852.25;;;17.63;66.13
15604;BME280;7902;49.042;9.092;2023-04-29T05:21:05;98843.97;;;17.66;65.80
15604;BME280;7902;49.042;9.092;2023-04-29T05:23:31;98857.41;;;17.65;66.38
15604;BME280;7902;49.042;9.092;2023-04-29T05:25:57;98854.28;;;17.69;65.58
15604;BME280;7902;49.042;9.092;2023-04-29T05:28:23;98873.09;;;17.50;66.12
15604;BME280;7902;49.042;9.092;2023-04-29T05:30:52;98876.09;;;17.55;66.17
15604;BME280;7902;49.042;9.092;2023-04-29T05:33:17;98868.53;;;17.68;65.55
15604;BME280;7902;49.042;9.092;2023-04-29T05:35:43;98868.88;;;17.65;65.56
15604;BME280;7902;49.042;9.092;2023-04-29T05:38:09;98873.16;;;17.66;65.44
15604;BME280;7902;49.042;9.092;2023-04-29T05:40:35;98874.53;;;17.70;65.42
15604;BME280;7902;49.042;9.092;2023-04-29T05:43:01;98881.09;;;17.58;66.33
15604;BME280;7902;49.042;9.092;2023-04-29T05:45:27;98879.16;;;17.68;65.80
15604;BME280;7902;49.042;9.092;2023-04-29T05:47:53;98881.19;;;17.74;65.11
15604;BME280;7902;49.042;9.092;2023-04-29T05:50:19;98885.81;;;17.72;65.03
15604;BME280;7902;49.042;9.092;2023-04-29T05:52:45;98884.97;;;17.72;65.14
15604;BME280;7902;49.042;9.092;2023-04-29T05:55:11;98893.78;;;17.72;64.75
15604;BME280;7902;49.042;9.092;2023-04-29T05:57:37;98895.78;;;17.70;65.11
15604;BME280;7902;49.042;9.092;2023-04-29T06:00:03;98896.22;;;17.66;64.92
15604;BME280;7902;49.042;9.092;2023-04-29T06:02:31;98896.09;;;17.67;64.91
15604;BME280;7902;49.042;9.092;2023-04-29T06:04:57;98905.44;;;17.79;64.48
15604;BME280;7902;49.042;9.092;2023-04-29T06:07:23;98906.09;;;17.81;64.20
15604;BME280;7902;49.042;9.092;2023-04-29T06:09:49;98904.75;;;17.77;64.32
15604;BME280;7902;49.042;9.092;2023-04-29T06:12:15;98910.75;;;17.79;64.55
15604;BME280;7902;49.042;9.092;2023-04-29T06:14:41;98915.38;;;17.77;64.21
15604;BME280;7902;49.042;9.092;2023-04-29T06:17:07;98924.50;;;17.75;64.28
15604;BME280;7902;49.042;9.092;2023-04-29T06:19:33;98922.00;;;17.73;64.11
15604;BME280;7902;49.042;9.092;2023-04-29T06:21:59;98923.94;;;17.63;64.43
15604;BME280;7902;49.042;9.092;2023-04-29T06:24:24;98926.97;;;17.76;64.37
15604;BME280;7902;49.042;9.092;2023-04-29T06:26:50;98933.47;;;17.74;64.75
15604;BME280;7902;49.042;9.092;2023-04-29T06:29:16;98928.97;;;17.74;64.65
15604;BME280;7902;49.042;9.092;2023-04-29T06:31:42;98938.56;;;17.67;65.08
15604;BME280;7902;49.042;9.092;2023-04-29T06:34:08;98937.59;;;17.76;64.02
15604;BME280;7902;49.042;9.092;2023-04-29T06:36:34;98947.25;;;17.77;64.47
15604;BME280;7902;49.042;9.092;2023-04-29T06:39:00;98951.25;;;17.81;64.11
15604;BME280;7902;49.042;9.092;2023-04-29T06:41:26;98952.88;;;17.74;64.50
15604;BME280;7902;49.042;9.092;2023-04-29T06:43:52;98957.72;;;17.79;64.36
15604;BME280;7902;49.042;9.092;2023-04-29T06:46:18;98955.53;;;17.74;63.78
15604;BME280;7902;49.042;9.092;2023-04-29T06:48:44;98955.06;;;17.79;63.50
15604;BME280;7902;49.042;9.092;2023-04-29T06:51:10;98954.59;;;17.83;63.16
15604;BME280;7902;49.042;9.092;2023-04-29T06:53:36;98952.88;;;17.74;62.80
15604;BME280;7902;49.042;9.092;2023-04-29T06:56:02;98961.34;;;17.78;62.99
15604;BME280;7902;49.042;9.092;2023-04-29T06:58:28;98960.84;;;17.74;63.02
15604;BME280;7902;49.042;9.092;2023-04-29T07:00:54;98968.47;;;17.69;62.93
15604;BME280;7902;49.042;9.092;2023-04-29T07:03:20;98975.50;;;17.86;62.57
15604;BME280;7902;49.042;9.092;2023-04-29T07:05:46;98971.50;;;17.82;62.59
15604;BME280;7902;49.042;9.092;2023-04-29T07:08:12;98968.50;;;17.85;62.24
15604;BME280;7902;49.042;9.092;2023-04-29T07:10:39;98984.78;;;17.82;62.80
15604;BME280;7902;49.042;9.092;2023-04-29T07:13:06;98984.44;;;17.85;63.22
15604;BME280;7902;49.042;9.092;2023-04-29T07:15:34;98989.09;;;17.83;62.95
15604;BME280;7902;49.042;9.092;2023-04-29T07:18:00;98989.75;;;17.85;62.91
15604;BME280;7902;49.042;9.092;2023-04-29T07:20:27;98997.47;;;17.96;62.15
15604;BME280;7902;49.042;9.092;2023-04-29T07:22:53;98998.75;;;17.84;62.54
15604;BME280;7902;49.042;9.092;2023-04-29T07:25:19;99007.84;;;17.82;62.46
15604;BME280;7902;49.042;9.092;2023-04-29T07:27:45;99005.81;;;17.76;62.58
15604;BME280;7902;49.042;9.092;2023-04-29T07:30:12;99009.91;;;17.96;62.45
15604;BME280;7902;49.042;9.092;2023-04-29T07:32:38;99016.19;;;17.87;62.62
15604;BME280;7902;49.042;9.092;2023-04-29T07:35:04;99013.88;;;17.92;62.65
15604;BME280;7902;49.042;9.092;2023-04-29T07:37:30;99014.97;;;17.81;62.42
15604;BME280;7902;49.042;9.092;2023-04-29T07:39:56;99014.47;;;17.78;62.50
15604;BME280;7902;49.042;9.092;2023-04-29T07:42:22;99016.03;;;17.88;62.51
15604;BME280;7902;49.042;9.092;2023-04-29T07:44:48;99018.31;;;17.83;62.45
15604;BME280;7902;49.042;9.092;2023-04-29T07:47:14;99020.63;;;17.78;62.27
15604;BME280;7902;49.042;9.092;2023-04-29T07:49:40;99026.88;;;17.69;62.53
15604;BME280;7902;49.042;9.092;2023-04-29T07:52:07;99033.72;;;17.80;62.11
15604;BME280;7902;49.042;9.092;2023-04-29T07:54:35;99032.34;;;17.68;63.13
15604;BME280;7902;49.042;9.092;2023-04-29T07:57:01;99031.91;;;17.80;62.46
15604;BME280;7902;49.042;9.092;2023-04-29T07:59:32;99029.31;;;17.88;61.89
15604;BME280;7902;49.042;9.092;2023-04-29T08:01:58;99039.56;;;17.83;62.10
15604;BME280;7902;49.042;9.092;2023-04-29T08:04:23;99035.69;;;17.70;62.72
15604;BME280;7902;49.042;9.092;2023-04-29T08:06:49;99034.06;;;17.77;62.12
15604;BME280;7902;49.042;9.092;2023-04-29T08:09:15;99036.19;;;17.73;62.51
15604;BME280;7902;49.042;9.092;2023-04-29T08:11:42;99043.72;;;17.86;61.74
15604;BME280;7902;49.042;9.092;2023-04-29T08:14:08;99043.91;;;17.84;62.35
15604;BME280;7902;49.042;9.092;2023-04-29T08:16:34;99039.34;;;17.69;62.12
15604;BME280;7902;49.042;9.092;2023-04-29T08:19:00;99040.81;;;17.71;62.14
15604;BME280;7902;49.042;9.092;2023-04-29T08:21:26;99046.34;;;17.78;62.02
15604;BME280;7902;49.042;9.092;2023-04-29T08:23:52;99049.16;;;17.76;62.29
15604;BME280;7902;49.042;9.092;2023-04-29T08:26:18;99046.84;;;17.81;62.06
15604;BME280;7902;49.042;9.092;2023-04-29T08:28:44;99048.50;;;17.74;61.79
15604;BME280;7902;49.042;9.092;2023-04-29T08:31:17;99048.13;;;17.69;62.37
15604;BME280;7902;49.042;9.092;2023-04-29T08:33:44;99052.84;;;17.83;62.26
15604;BME280;7902;49.042;9.092;2023-04-29T08:36:10;99057.47;;;17.81;62.00
15604;BME280;7902;49.042;9.092;2023-04-29T08:38:36;99064.25;;;17.76;61.83
15604;BME280;7902;49.042;9.092;2023-04-29T08:41:02;99062.81;;;17.89;61.81
15604;BME280;7902;49.042;9.092;2023-04-29T08:43:29;99060.66;;;17.85;61.94
15604;BME280;7902;49.042;9.092;2023-04-29T08:45:57;99059.88;;;17.92;61.47
15604;BME280;7902;49.042;9.092;2023-04-29T08:48:24;99062.69;;;17.91;61.52
15604;BME280;7902;49.042;9.092;2023-04-29T08:50:51;99055.19;;;17.86;61.70
15604;BME280;7902;49.042;9.092;2023-04-29T08:53:17;99054.09;;;17.97;61.72
15604;BME280;7902;49.042;9.092;2023-04-29T08:55:46;99062.78;;;18.07;61.44
15604;BME280;7902;49.042;9.092;2023-04-29T08:58:14;99056.13;;;18.03;61.18
15604;BME280;7902;49.042;9.092;2023-04-29T09:00:42;99061.25;;;18.05;61.21
15604;BME280;7902;49.042;9.092;2023-04-29T09:03:16;99065.47;;;17.89;61.77
15604;BME280;7902;49.042;9.092;2023-04-29T09:05:44;99071.84;;;17.96;61.65
15604;BME280;7902;49.042;9.092;2023-04-29T09:08:13;99071.53;;;17.99;61.30
15604;BME280;7902;49.042;9.092;2023-04-29T09:10:41;99077.19;;;18.05;61.27
15604;BME280;7902;49.042;9.092;2023-04-29T09:13:07;99084.19;;;17.80;61.68
15604;BME280;7902;49.042;9.092;2023-04-29T09:15:37;99079.53;;;18.08;60.76
15604;BME280;7902;49.042;9.092;2023-04-29T09:18:05;99084.22;;;18.14;60.25
15604;BME280;7902;49.042;9.092;2023-04-29T09:20:31;99077.56;;;18.10;60.83
15604;BME280;7902;49.042;9.092;2023-04-29T09:22:59;99077.91;;;18.15;60.29
15604;BME280;7902;49.042;9.092;2023-04-29T09:25:26;99087.03;;;18.12;60.91
15604;BME280;7902;49.042;9.092;2023-04-29T09:27:53;99088.16;;;18.02;60.64
15604;BME280;7902;49.042;9.092;2023-04-29T09:30:20;99092.59;;;17.93;60.57
15604;BME280;7902;49.042;9.092;2023-04-29T09:33:03;99086.59;;;17.91;60.77
15604;BME280;7902;49.042;9.092;2023-04-29T09:35:30;99093.09;;;17.96;60.85
15604;BME280;7902;49.042;9.092;2023-04-29T09:38:13;99091.25;;;17.89;60.91
15604;BME280;7902;49.042;9.092;2023-04-29T09:40:41;99092.38;;;17.86;60.53
15604;BME280;7902;49.042;9.092;2023-04-29T09:43:14;99089.41;;;17.89;60.56
15604;BME280;7902;49.042;9.092;2023-04-29T09:45:46;99091.28;;;17.97;59.85
15604;BME280;7902;49.042;9.092;2023-04-29T09:48:12;99095.13;;;18.03;60.22
15604;BME280;7902;49.042;9.092;2023-04-29T09:50:42;99100.09;;;17.72;60.44
15604;BME280;7902;49.042;9.092;2023-04-29T09:53:10;99102.84;;;17.62;60.89
15604;BME280;7902;49.042;9.092;2023-04-29T09:55:41;99101.91;;;17.53;61.22
15604;BME280;7902;49.042;9.092;2023-04-29T09:58:32;99103.28;;;17.58;61.08
15604;BME280;7902;49.042;9.092;2023-04-29T10:01:02;99107.38;;;17.52;61.14
15604;BME280;7902;49.042;9.092;2023-04-29T10:03:33;99107.94;;;17.38;60.93
15604;BME280;7902;49.042;9.092;2023-04-29T10:06:01;99110.03;;;17.52;60.52
15604;BME280;7902;49.042;9.092;2023-04-29T10:08:31;99113.94;;;17.40;60.33
15604;BME280;7902;49.042;9.092;2023-04-29T10:11:01;99113.06;;;17.57;60.08
15604;BME280;7902;49.042;9.092;2023-04-29T10:13:29;99108.94;;;17.37;60.28
15604;BME280;7902;49.042;9.092;2023-04-29T10:16:10;99102.94;;;17.35;60.33
15604;BME280;7902;49.042;9.092;2023-04-29T10:18:40;99111.66;;;17.63;59.51
15604;BME280;7902;49.042;9.092;2023-04-29T10:21:10;99111.56;;;17.54;59.07
15604;BME280;7902;49.042;9.092;2023-04-29T10:23:38;99111.78;;;17.61;60.01
15604;BME280;7902;49.042;9.092;2023-04-29T10:26:07;99115.28;;;17.44;60.10
15604;BME280;7902;49.042;9.092;2023-04-29T10:28:37;99111.50;;;17.46;60.19
15604;BME280;7902;49.042;9.092;2023-04-29T10:31:05;99115.34;;;17.52;60.58
15604;BME280;7902;49.042;9.092;2023-04-29T10:33:34;99115.41;;;17.17;60.72
15604;BME280;7902;49.042;9.092;2023-04-29T10:36:01;99108.78;;;17.38;60.51
15604;BME280;7902;49.042;9.092;2023-04-29T10:38:31;99109.03;;;17.27;60.53
15604;BME280;7902;49.042;9.092;2023-04-29T10:41:01;99107.50;;;17.60;60.00
15604;BME280;7902;49.042;9.092;2023-04-29T10:43:29;99101.72;;;17.65;59.55
15604;BME280;7902;49.042;9.092;2023-04-29T10:48:45;99107.31;;;17.44;60.05
15604;BME280;7902;49.042;9.092;2023-04-29T10:51:11;99100.50;;;17.59;59.75
15604;BME280;7902;49.042;9.092;2023-04-29T10:54:01;99103.53;;;17.64;59.64
15604;BME280;7902;49.042;9.092;2023-04-29T10:56:35;99101.75;;;17.73;59.27
15604;BME280;7902;49.042;9.092;2023-04-29T10:59:02;99098.38;;;17.45;59.93
15604;BME280;7902;49.042;9.092;2023-04-29T11:01:41;99099.72;;;17.49;59.96
15604;BME280;7902;49.042;9.092;2023-04-29T11:04:07;99092.69;;;17.83;59.13
15604;BME280;7902;49.042;9.092;2023-04-29T11:09:11;99103.84;;;17.87;58.85
15604;BME280;7902;49.042;9.092;2023-04-29T11:12:07;99106.28;;;17.80;59.11
15604;BME280;7902;49.042;9.092;2023-04-29T11:14:48;99095.31;;;17.58;57.85
15604;BME280;7902;49.042;9.092;2023-04-29T11:17:17;99091.09;;;17.65;58.00
15604;BME280;7902;49.042;9.092;2023-04-29T11:19:46;99085.56;;;17.40;57.42
15604;BME280;7902;49.042;9.092;2023-04-29T11:25:01;99091.97;;;17.73;56.93
15604;BME280;7902;49.042;9.092;2023-04-29T11:27:36;99089.63;;;17.70;56.99
15604;BME280;7902;49.042;9.092;2023-04-29T11:30:04;99087.06;;;17.86;57.22
15604;BME280;7902;49.042;9.092;2023-04-29T11:32:33;99091.03;;;17.82;56.63
15604;BME280;7902;49.042;9.092;2023-04-29T11:35:10;99087.56;;;17.90;56.42
15604;BME280;7902;49.042;9.092;2023-04-29T11:37:37;99092.47;;;18.03;55.87
15604;BME280;7902;49.042;9.092;2023-04-29T11:40:04;99095.59;;;17.98;56.46
15604;BME280;7902;49.042;9.092;2023-04-29T11:42:48;99094.78;;;17.97;56.53
15604;BME280;7902;49.042;9.092;2023-04-29T11:45:17;99099.16;;;18.15;56.59
15604;BME280;7902;49.042;9.092;2023-04-29T11:47:44;99094.72;;;18.23;55.72
15604;BME280;7902;49.042;9.092;2023-04-29T11:50:11;99102.53;;;18.25;56.24
15604;BME280;7902;49.042;9.092;2023-04-29T11:52:38;99095.56;;;18.24;56.26
15604;BME280;7902;49.042;9.092;2023-04-29T11:55:08;99097.22;;;18.25;56.55
15604;BME280;7902;49.042;9.092;2023-04-29T11:57:34;99099.00;;;18.16;55.60
15604;BME280;7902;49.042;9.092;2023-04-29T12:00:00;99095.63;;;18.06;56.62
15604;BME280;7902;49.042;9.092;2023-04-29T12:02:33;99101.19;;;18.21;56.41
15604;BME280;7902;49.042;9.092;2023-04-29T12:04:59;99102.88;;;17.96;57.03
15604;BME280;7902;49.042;9.092;2023-04-29T12:07:26;99102.09;;;18.04;56.63
15604;BME280;7902;49.042;9.092;2023-04-29T12:09:53;99102.66;;;18.15;56.45
15604;BME280;7902;49.042;9.092;2023-04-29T12:12:19;99096.75;;;18.29;56.65
15604;BME280;7902;49.042;9.092;2023-04-29T12:14:46;99100.63;;;18.43;56.00
15604;BME280;7902;49.042;9.092;2023-04-29T12:17:12;99108.56;;;18.35;56.26
15604;BME280;7902;49.042;9.092;2023-04-29T12:19:38;99107.22;;;18.31;56.34
15604;BME280;7902;49.042;9.092;2023-04-29T12:22:05;99115.22;;;18.39;56.32
15604;BME280;7902;49.042;9.092;2023-04-29T12:24:38;99110.56;;;18.41;55.89
15604;BME280;7902;49.042;9.092;2023-04-29T12:27:07;99108.06;;;18.31;55.59
15604;BME280;7902;49.042;9.092;2023-04-29T12:29:37;99109.41;;;18.35;56.01
15604;BME280;7902;49.042;9.092;2023-04-29T12:32:05;99117.84;;;18.31;55.92
15604;BME280;7902;49.042;9.092;2023-04-29T12:34:32;99124.00;;;18.31;56.39
15604;BME280;7902;49.042;9.092;2023-04-29T12:36:58;99121.66;;;18.62;55.83
15604;BME280;7902;49.042;9.092;2023-04-29T12:39:25;99130.84;;;18.42;56.07
15604;BME280;7902;49.042;9.092;2023-04-29T12:41:57;99131.50;;;18.36;56.37
15604;BME280;7902;49.042;9.092;2023-04-29T12:44:24;99128.25;;;18.50;55.91
15604;BME280;7902;49.042;9.092;2023-04-29T12:46:50;99121.97;;;18.59;55.67
15604;BME280;7902;49.042;9.092;2023-04-29T12:49:23;99121.38;;;18.39;55.92
15604;BME280;7902;49.042;9.092;2023-04-29T12:51:49;99127.06;;;18.53;55.55
15604;BME280;7902;49.042;9.092;2023-04-29T12:54:15;99126.06;;;18.46;56.31
15604;BME280;7902;49.042;9.092;2023-04-29T12:56:41;99135.97;;;18.35;55.82
15604;BME280;7902;49.042;9.092;2023-04-29T12:59:09;99130.84;;;18.42;56.22
15604;BME280;7902;49.042;9.092;2023-04-29T13:01:37;99128.72;;;18.46;56.40
15604;BME280;7902;49.042;9.092;2023-04-29T13:04:04;99129.50;;;18.38;55.70
15604;BME280;7902;49.042;9.092;2023-04-29T13:06:34;99127.31;;;18.33;55.73
15604;BME280;7902;49.042;9.092;2023-04-29T13:09:07;99134.31;;;18.34;56.15
15604;BME280;7902;49.042;9.092;2023-04-29T13:11:37;99134.50;;;18.41;55.52
15604;BME280;7902;49.042;9.092;2023-04-29T13:14:04;99132.31;;;18.36;55.50
15604;BME280;7902;49.042;9.092;2023-04-29T13:16:32;99132.84;;;18.40;55.77
15604;BME280;7902;49.042;9.092;2023-04-29T13:18:59;99129.00;;;18.34;55.55
15604;BME280;7902;49.042;9.092;2023-04-29T13:21:25;99126.22;;;18.52;55.62
15604;BME280;7902;49.042;9.092;2023-04-29T13:23:55;99124.19;;;18.38;55.88
15604;BME280;7902;49.042;9.092;2023-04-29T13:26:21;99124.69;;;18.41;55.86
15604;BME280;7902;49.042;9.092;2023-04-29T13:28:50;99127.19;;;18.35;55.71
15604;BME280;7902;49.042;9.092;2023-04-29T13:31:16;99140.00;;;18.48;55.46
15604;BME280;7902;49.042;9.092;2023-04-29T13:33:42;99140.84;;;18.48;55.71
15604;BME280;7902;49.042;9.092;2023-04-29T13:36:08;99136.66;;;18.37;55.80
15604;BME280;7902;49.042;9.092;2023-04-29T13:38:34;99131.19;;;18.39;56.12
15604;BME280;7902;49.042;9.092;2023-04-29T13:41:00;99132.88;;;18.48;55.54